sensor_id;sensor_type;location;lat;lon;timestamp;temperature;humidity
33594;DHT22;19920;52.242;20.940;2022-12-24T00:02:08;6.90;99.90
33594;DHT22;19920;52.242;20.940;2022-12-24T00:04:34;7.00;99.90
33594;DHT22;19920;52.242;20.940;2022-12-24T00:06:59;6.90;99.90
33594;DHT22;19920;52.242;20.940;2022-12-24T00:09:25;6.90;99.90
33594;DHT22;19920;52.242;20.940;2022-12-24T00:11:51;6.90;99.90
33594;DHT22;19920;52.242;20.940;2022-12-24T00:14:16;6.90;99.90
33594;DHT22;19920;52.242;20.940;2022-12-24T00:16:42;6.90;99.90
33594;DHT22;19920;52.242;20.940;2022-12-24T00:19:07;6.90;99.90
33594;DHT22;19920;52.242;20.940;2022-12-24T00:21:33;6.90;99.90
33594;DHT22;19920;52.242;20.940;2022-12-24T00:23:59;6.90;99.90
33594;DHT22;19920;52.242;20.940;2022-12-24T00:26:24;6.90;99.90
33594;DHT22;19920;52.242;20.940;2022-12-24T00:28:50;6.90;99.90
33594;DHT22;19920;52.242;20.940;2022-12-24T00:31:17;7.00;99.90
33594;DHT22;19920;52.242;20.940;2022-12-24T00:33:45;7.00;99.90
33594;DHT22;19920;52.242;20.940;2022-12-24T00:36:10;7.00;99.90
33594;DHT22;19920;52.242;20.940;2022-12-24T00:38:37;6.90;99.90
33594;DHT22;19920;52.242;20.940;2022-12-24T00:41:05;6.90;99.90
33594;DHT22;19920;52.242;20.940;2022-12-24T00:43:31;6.80;99.90
33594;DHT22;19920;52.242;20.940;2022-12-24T00:45:58;6.80;99.90
33594;DHT22;19920;52.242;20.940;2022-12-24T00:48:23;6.80;99.90
33594;DHT22;19920;52.242;20.940;2022-12-24T00:50:50;6.80;99.90
33594;DHT22;19920;52.242;20.940;2022-12-24T00:53:16;6.90;99.90
33594;DHT22;19920;52.242;20.940;2022-12-24T00:55:42;6.90;99.90
33594;DHT22;19920;52.242;20.940;2022-12-24T00:58:08;6.80;99.90
33594;DHT22;19920;52.242;20.940;2022-12-24T01:00:33;6.80;99.90
33594;DHT22;19920;52.242;20.940;2022-12-24T01:02:59;6.70;99.90
33594;DHT22;19920;52.242;20.940;2022-12-24T01:05:24;6.70;99.90
33594;DHT22;19920;52.242;20.940;2022-12-24T01:07:50;6.70;99.90
33594;DHT22;19920;52.242;20.940;2022-12-24T01:10:18;6.80;99.90
33594;DHT22;19920;52.242;20.940;2022-12-24T01:12:45;6.80;99.90
33594;DHT22;19920;52.242;20.940;2022-12-24T01:15:12;6.80;99.90
33594;DHT22;19920;52.242;20.940;2022-12-24T01:17:39;6.80;99.90
33594;DHT22;19920;52.242;20.940;2022-12-24T01:20:06;6.70;99.90
33594;DHT22;19920;52.242;20.940;2022-12-24T01:22:32;6.60;99.90
33594;DHT22;19920;52.242;20.940;2022-12-24T01:24:58;6.80;99.90
33594;DHT22;19920;52.242;20.940;2022-12-24T01:27:24;6.80;99.90
33594;DHT22;19920;52.242;20.940;2022-12-24T01:29:49;6.80;99.90
33594;DHT22;19920;52.242;20.940;2022-12-24T01:32:15;6.80;99.90
33594;DHT22;19920;52.242;20.940;2022-12-24T01:34:41;6.80;99.90
33594;DHT22;19920;52.242;20.940;2022-12-24T01:37:06;6.70;99.90
33594;DHT22;19920;52.242;20.940;2022-12-24T01:39:32;6.70;99.90
33594;DHT22;19920;52.242;20.940;2022-12-24T01:41:58;6.70;99.90
33594;DHT22;19920;52.242;20.940;2022-12-24T01:44:46;6.70;99.90
33594;DHT22;19920;52.242;20.940;2022-12-24T01:47:25;6.70;99.90
33594;DHT22;19920;52.242;20.940;2022-12-24T01:49:57;6.60;99.90
33594;DHT22;19920;52.242;20.940;2022-12-24T01:52:29;6.50;99.90
33594;DHT22;19920;52.242;20.940;2022-12-24T01:57:39;6.60;99.90
33594;DHT22;19920;52.242;20.940;2022-12-24T02:00:10;6.70;99.90
33594;DHT22;19920;52.242;20.940;2022-12-24T02:02:38;6.60;99.90
33594;DHT22;19920;52.242;20.940;2022-12-24T02:05:14;6.70;99.90
33594;DHT22;19920;52.242;20.940;2022-12-24T02:07:41;6.70;99.90
33594;DHT22;19920;52.242;20.940;2022-12-24T02:10:11;6.70;99.90
33594;DHT22;19920;52.242;20.940;2022-12-24T02:12:38;6.70;99.90
33594;DHT22;19920;52.242;20.940;2022-12-24T02:15:06;6.60;99.90
33594;DHT22;19920;52.242;20.940;2022-12-24T02:17:59;6.70;99.90
33594;DHT22;19920;52.242;20.940;2022-12-24T02:32:13;6.70;99.90
33594;DHT22;19920;52.242;20.940;2022-12-24T02:34:44;6.70;99.90
33594;DHT22;19920;52.242;20.940;2022-12-24T02:37:22;6.60;99.90
33594;DHT22;19920;52.242;20.940;2022-12-24T02:40:03;6.60;99.90
33594;DHT22;19920;52.242;20.940;2022-12-24T02:42:40;6.70;99.90
33594;DHT22;19920;52.242;20.940;2022-12-24T02:45:30;6.70;99.90
33594;DHT22;19920;52.242;20.940;2022-12-24T02:47:56;6.80;99.90
33594;DHT22;19920;52.242;20.940;2022-12-24T02:50:22;6.80;99.90
33594;DHT22;19920;52.242;20.940;2022-12-24T02:52:48;6.90;99.90
33594;DHT22;19920;52.242;20.940;2022-12-24T02:58:09;6.80;99.90
33594;DHT22;19920;52.242;20.940;2022-12-24T03:00:44;6.80;99.90
33594;DHT22;19920;52.242;20.940;2022-12-24T03:03:37;6.70;99.90
33594;DHT22;19920;52.242;20.940;2022-12-24T03:06:20;6.70;99.90
33594;DHT22;19920;52.242;20.940;2022-12-24T03:11:37;6.70;99.90
33594;DHT22;19920;52.242;20.940;2022-12-24T03:14:05;6.70;99.90
33594;DHT22;19920;52.242;20.940;2022-12-24T03:16:31;6.70;99.90
33594;DHT22;19920;52.242;20.940;2022-12-24T03:18:58;6.70;99.90
33594;DHT22;19920;52.242;20.940;2022-12-24T03:21:31;6.70;99.90
33594;DHT22;19920;52.242;20.940;2022-12-24T03:23:57;6.70;99.90
33594;DHT22;19920;52.242;20.940;2022-12-24T03:26:24;6.60;99.90
33594;DHT22;19920;52.242;20.940;2022-12-24T03:28:51;6.60;99.90
33594;DHT22;19920;52.242;20.940;2022-12-24T03:31:17;6.60;99.90
33594;DHT22;19920;52.242;20.940;2022-12-24T03:33:43;6.60;99.90
33594;DHT22;19920;52.242;20.940;2022-12-24T03:36:10;6.60;99.90
33594;DHT22;19920;52.242;20.940;2022-12-24T03:38:36;6.70;99.90
33594;DHT22;19920;52.242;20.940;2022-12-24T03:41:02;6.60;99.90
33594;DHT22;19920;52.242;20.940;2022-12-24T03:43:28;6.60;99.90
33594;DHT22;19920;52.242;20.940;2022-12-24T03:45:53;6.60;99.90
33594;DHT22;19920;52.242;20.940;2022-12-24T03:48:19;6.60;99.90
33594;DHT22;19920;52.242;20.940;2022-12-24T03:50:45;6.60;99.90
33594;DHT22;19920;52.242;20.940;2022-12-24T03:53:10;6.60;99.90
33594;DHT22;19920;52.242;20.940;2022-12-24T03:55:37;6.60;99.90
33594;DHT22;19920;52.242;20.940;2022-12-24T03:58:03;6.60;99.90
33594;DHT22;19920;52.242;20.940;2022-12-24T04:00:29;6.50;99.90
33594;DHT22;19920;52.242;20.940;2022-12-24T04:02:55;6.50;99.90
33594;DHT22;19920;52.242;20.940;2022-12-24T04:05:21;6.50;99.90
33594;DHT22;19920;52.242;20.940;2022-12-24T04:07:46;6.60;99.90
33594;DHT22;19920;52.242;20.940;2022-12-24T04:10:13;6.60;99.90
33594;DHT22;19920;52.242;20.940;2022-12-24T04:12:39;6.60;99.90
33594;DHT22;19920;52.242;20.940;2022-12-24T04:15:05;6.60;99.90
33594;DHT22;19920;52.242;20.940;2022-12-24T04:17:32;6.50;99.90
33594;DHT22;19920;52.242;20.940;2022-12-24T04:19:57;6.50;99.90
33594;DHT22;19920;52.242;20.940;2022-12-24T04:22:23;6.50;99.90
33594;DHT22;19920;52.242;20.940;2022-12-24T04:24:49;6.50;99.90
33594;DHT22;19920;52.242;20.940;2022-12-24T04:27:14;6.50;99.90
33594;DHT22;19920;52.242;20.940;2022-12-24T04:29:40;6.50;99.90
33594;DHT22;19920;52.242;20.940;2022-12-24T04:32:06;6.50;99.90
33594;DHT22;19920;52.242;20.940;2022-12-24T04:34:32;6.50;99.90
33594;DHT22;19920;52.242;20.940;2022-12-24T04:36:57;6.50;99.90
33594;DHT22;19920;52.242;20.940;2022-12-24T04:39:23;6.50;99.90
33594;DHT22;19920;52.242;20.940;2022-12-24T04:41:48;6.50;99.90
33594;DHT22;19920;52.242;20.940;2022-12-24T04:44:14;6.50;99.90
33594;DHT22;19920;52.242;20.940;2022-12-24T04:46:40;6.50;99.90
33594;DHT22;19920;52.242;20.940;2022-12-24T04:49:07;6.50;99.90
33594;DHT22;19920;52.242;20.940;2022-12-24T04:51:33;6.50;99.90
33594;DHT22;19920;52.242;20.940;2022-12-24T04:53:59;6.40;99.90
33594;DHT22;19920;52.242;20.940;2022-12-24T04:56:27;6.40;99.90
33594;DHT22;19920;52.242;20.940;2022-12-24T04:58:53;6.40;99.90
33594;DHT22;19920;52.242;20.940;2022-12-24T05:01:25;6.40;99.90
33594;DHT22;19920;52.242;20.940;2022-12-24T05:03:51;6.50;99.90
33594;DHT22;19920;52.242;20.940;2022-12-24T05:06:21;6.50;99.90
33594;DHT22;19920;52.242;20.940;2022-12-24T05:08:47;6.50;99.90
33594;DHT22;19920;52.242;20.940;2022-12-24T05:11:12;6.40;99.90
33594;DHT22;19920;52.242;20.940;2022-12-24T05:13:40;6.40;99.90
33594;DHT22;19920;52.242;20.940;2022-12-24T05:16:06;6.40;99.90
33594;DHT22;19920;52.242;20.940;2022-12-24T05:18:32;6.40;99.90
33594;DHT22;19920;52.242;20.940;2022-12-24T05:20:58;6.30;99.90
33594;DHT22;19920;52.242;20.940;2022-12-24T05:23:24;6.40;99.90
33594;DHT22;19920;52.242;20.940;2022-12-24T05:26:19;6.40;99.90
33594;DHT22;19920;52.242;20.940;2022-12-24T05:28:50;6.40;99.90
33594;DHT22;19920;52.242;20.940;2022-12-24T05:31:16;6.40;99.90
33594;DHT22;19920;52.242;20.940;2022-12-24T05:33:41;6.40;99.90
33594;DHT22;19920;52.242;20.940;2022-12-24T05:36:07;6.40;99.90
33594;DHT22;19920;52.242;20.940;2022-12-24T05:38:33;6.30;99.90
33594;DHT22;19920;52.242;20.940;2022-12-24T05:40:59;6.40;99.90
33594;DHT22;19920;52.242;20.940;2022-12-24T05:43:25;6.30;99.90
33594;DHT22;19920;52.242;20.940;2022-12-24T05:45:51;6.30;99.90
33594;DHT22;19920;52.242;20.940;2022-12-24T05:48:16;6.40;99.90
33594;DHT22;19920;52.242;20.940;2022-12-24T05:50:42;6.40;99.90
33594;DHT22;19920;52.242;20.940;2022-12-24T05:53:07;6.30;99.90
33594;DHT22;19920;52.242;20.940;2022-12-24T05:55:33;6.40;99.90
33594;DHT22;19920;52.242;20.940;2022-12-24T05:57:59;6.40;99.90
33594;DHT22;19920;52.242;20.940;2022-12-24T06:00:25;6.40;99.90
33594;DHT22;19920;52.242;20.940;2022-12-24T06:02:51;6.30;99.90
33594;DHT22;19920;52.242;20.940;2022-12-24T06:05:16;6.30;99.90
33594;DHT22;19920;52.242;20.940;2022-12-24T06:07:42;6.40;99.90
33594;DHT22;19920;52.242;20.940;2022-12-24T06:10:08;6.40;99.90
33594;DHT22;19920;52.242;20.940;2022-12-24T06:12:34;6.30;99.90
33594;DHT22;19920;52.242;20.940;2022-12-24T06:14:59;6.30;99.90
33594;DHT22;19920;52.242;20.940;2022-12-24T06:17:25;6.30;99.90
33594;DHT22;19920;52.242;20.940;2022-12-24T06:19:51;6.20;99.90
33594;DHT22;19920;52.242;20.940;2022-12-24T06:22:17;6.20;99.90
33594;DHT22;19920;52.242;20.940;2022-12-24T06:24:42;6.20;99.90
33594;DHT22;19920;52.242;20.940;2022-12-24T06:27:08;6.20;99.90
33594;DHT22;19920;52.242;20.940;2022-12-24T06:29:33;6.20;99.90
33594;DHT22;19920;52.242;20.940;2022-12-24T06:31:59;6.20;99.90
33594;DHT22;19920;52.242;20.940;2022-12-24T06:34:25;6.30;99.90
33594;DHT22;19920;52.242;20.940;2022-12-24T06:36:50;6.20;99.90
33594;DHT22;19920;52.242;20.940;2022-12-24T06:39:16;6.20;99.90
33594;DHT22;19920;52.242;20.940;2022-12-24T06:41:42;6.30;99.90
33594;DHT22;19920;52.242;20.940;2022-12-24T06:44:08;6.30;99.90
33594;DHT22;19920;52.242;20.940;2022-12-24T06:46:33;6.30;99.90
33594;DHT22;19920;52.242;20.940;2022-12-24T06:48:59;6.20;99.90
33594;DHT22;19920;52.242;20.940;2022-12-24T06:51:25;6.20;99.90
33594;DHT22;19920;52.242;20.940;2022-12-24T06:53:51;6.20;99.90
33594;DHT22;19920;52.242;20.940;2022-12-24T06:56:19;6.20;99.90
33594;DHT22;19920;52.242;20.940;2022-12-24T06:58:45;6.20;99.90
33594;DHT22;19920;52.242;20.940;2022-12-24T07:01:13;6.20;99.90
33594;DHT22;19920;52.242;20.940;2022-12-24T07:03:39;6.20;99.90
33594;DHT22;19920;52.242;20.940;2022-12-24T07:06:05;6.30;99.90
33594;DHT22;19920;52.242;20.940;2022-12-24T07:08:31;6.30;99.90
33594;DHT22;19920;52.242;20.940;2022-12-24T07:11:01;6.30;99.90
33594;DHT22;19920;52.242;20.940;2022-12-24T07:13:27;6.20;99.90
33594;DHT22;19920;52.242;20.940;2022-12-24T07:16:03;6.20;99.90
33594;DHT22;19920;52.242;20.940;2022-12-24T07:18:30;6.40;99.90
33594;DHT22;19920;52.242;20.940;2022-12-24T07:20:56;6.40;99.90
33594;DHT22;19920;52.242;20.940;2022-12-24T07:23:21;6.30;99.90
33594;DHT22;19920;52.242;20.940;2022-12-24T07:25:47;6.30;99.90
33594;DHT22;19920;52.242;20.940;2022-12-24T07:28:13;6.30;99.90
33594;DHT22;19920;52.242;20.940;2022-12-24T07:30:38;6.20;99.90
33594;DHT22;19920;52.242;20.940;2022-12-24T07:33:04;6.20;99.90
33594;DHT22;19920;52.242;20.940;2022-12-24T07:35:29;6.20;99.90
33594;DHT22;19920;52.242;20.940;2022-12-24T07:37:55;6.20;99.90
33594;DHT22;19920;52.242;20.940;2022-12-24T07:40:21;6.30;99.90
33594;DHT22;19920;52.242;20.940;2022-12-24T07:42:46;6.30;99.90
33594;DHT22;19920;52.242;20.940;2022-12-24T07:45:12;6.30;99.90
33594;DHT22;19920;52.242;20.940;2022-12-24T07:47:39;6.20;99.90
33594;DHT22;19920;52.242;20.940;2022-12-24T07:50:05;6.20;99.90
33594;DHT22;19920;52.242;20.940;2022-12-24T07:52:31;6.20;99.90
33594;DHT22;19920;52.242;20.940;2022-12-24T07:54:56;6.20;99.90
33594;DHT22;19920;52.242;20.940;2022-12-24T07:57:22;6.20;99.90
33594;DHT22;19920;52.242;20.940;2022-12-24T07:59:48;6.20;99.90
33594;DHT22;19920;52.242;20.940;2022-12-24T08:02:13;6.20;99.90
33594;DHT22;19920;52.242;20.940;2022-12-24T08:04:39;6.20;99.90
33594;DHT22;19920;52.242;20.940;2022-12-24T08:07:05;6.20;99.90
33594;DHT22;19920;52.242;20.940;2022-12-24T08:09:36;6.30;99.90
33594;DHT22;19920;52.242;20.940;2022-12-24T08:12:02;6.20;99.90
33594;DHT22;19920;52.242;20.940;2022-12-24T08:14:29;6.20;99.90
33594;DHT22;19920;52.242;20.940;2022-12-24T08:16:55;6.20;99.90
33594;DHT22;19920;52.242;20.940;2022-12-24T08:19:20;6.20;99.90
33594;DHT22;19920;52.242;20.940;2022-12-24T08:21:46;6.20;99.90
33594;DHT22;19920;52.242;20.940;2022-12-24T08:24:12;6.20;99.90
33594;DHT22;19920;52.242;20.940;2022-12-24T08:26:37;6.20;99.90
33594;DHT22;19920;52.242;20.940;2022-12-24T08:29:04;6.10;99.90
33594;DHT22;19920;52.242;20.940;2022-12-24T08:31:30;6.20;99.90
33594;DHT22;19920;52.242;20.940;2022-12-24T08:34:04;6.20;99.90
33594;DHT22;19920;52.242;20.940;2022-12-24T08:36:30;6.30;99.90
33594;DHT22;19920;52.242;20.940;2022-12-24T08:38:55;6.30;99.90
33594;DHT22;19920;52.242;20.940;2022-12-24T08:41:21;6.20;99.90
33594;DHT22;19920;52.242;20.940;2022-12-24T08:43:47;6.30;99.90
33594;DHT22;19920;52.242;20.940;2022-12-24T08:46:12;6.30;99.90
33594;DHT22;19920;52.242;20.940;2022-12-24T08:48:38;6.30;99.90
33594;DHT22;19920;52.242;20.940;2022-12-24T08:51:09;6.30;99.90
33594;DHT22;19920;52.242;20.940;2022-12-24T08:53:35;6.40;99.90
33594;DHT22;19920;52.242;20.940;2022-12-24T08:56:02;6.30;99.90
33594;DHT22;19920;52.242;20.940;2022-12-24T08:58:29;6.40;99.90
33594;DHT22;19920;52.242;20.940;2022-12-24T09:00:54;6.50;99.90
33594;DHT22;19920;52.242;20.940;2022-12-24T09:03:20;6.50;99.90
33594;DHT22;19920;52.242;20.940;2022-12-24T09:05:46;6.50;99.90
33594;DHT22;19920;52.242;20.940;2022-12-24T09:08:12;6.50;99.90
33594;DHT22;19920;52.242;20.940;2022-12-24T09:10:38;6.50;99.90
33594;DHT22;19920;52.242;20.940;2022-12-24T09:13:03;6.60;99.90
33594;DHT22;19920;52.242;20.940;2022-12-24T09:15:29;6.50;99.90
33594;DHT22;19920;52.242;20.940;2022-12-24T09:17:55;6.60;99.90
33594;DHT22;19920;52.242;20.940;2022-12-24T09:20:20;6.60;99.90
33594;DHT22;19920;52.242;20.940;2022-12-24T09:22:46;6.70;99.90
33594;DHT22;19920;52.242;20.940;2022-12-24T09:25:11;6.70;99.90
33594;DHT22;19920;52.242;20.940;2022-12-24T09:27:37;6.70;99.90
33594;DHT22;19920;52.242;20.940;2022-12-24T09:30:04;6.70;99.90
33594;DHT22;19920;52.242;20.940;2022-12-24T09:32:30;6.70;99.90
33594;DHT22;19920;52.242;20.940;2022-12-24T09:34:56;6.70;99.90
33594;DHT22;19920;52.242;20.940;2022-12-24T09:37:22;6.80;99.90
33594;DHT22;19920;52.242;20.940;2022-12-24T09:39:47;6.70;99.90
33594;DHT22;19920;52.242;20.940;2022-12-24T09:42:41;6.60;99.90
33594;DHT22;19920;52.242;20.940;2022-12-24T09:45:34;6.50;99.90
33594;DHT22;19920;52.242;20.940;2022-12-24T09:48:13;6.50;99.90
33594;DHT22;19920;52.242;20.940;2022-12-24T09:50:53;6.60;99.90
33594;DHT22;19920;52.242;20.940;2022-12-24T09:53:23;6.70;99.90
33594;DHT22;19920;52.242;20.940;2022-12-24T09:55:55;6.70;99.90
33594;DHT22;19920;52.242;20.940;2022-12-24T09:58:48;6.70;99.90
33594;DHT22;19920;52.242;20.940;2022-12-24T10:01:16;6.80;99.90
33594;DHT22;19920;52.242;20.940;2022-12-24T10:03:43;6.70;99.90
33594;DHT22;19920;52.242;20.940;2022-12-24T10:14:47;6.80;99.90
33594;DHT22;19920;52.242;20.940;2022-12-24T10:23:14;6.90;99.90
33594;DHT22;19920;52.242;20.940;2022-12-24T10:25:52;6.90;99.90
33594;DHT22;19920;52.242;20.940;2022-12-24T10:28:24;6.70;99.90
33594;DHT22;19920;52.242;20.940;2022-12-24T10:30:58;6.70;99.90
33594;DHT22;19920;52.242;20.940;2022-12-24T10:33:34;6.70;99.90
33594;DHT22;19920;52.242;20.940;2022-12-24T10:36:01;6.70;99.90
33594;DHT22;19920;52.242;20.940;2022-12-24T10:38:27;6.80;99.90
33594;DHT22;19920;52.242;20.940;2022-12-24T10:40:55;6.80;99.90
33594;DHT22;19920;52.242;20.940;2022-12-24T10:43:23;6.70;99.90
33594;DHT22;19920;52.242;20.940;2022-12-24T10:46:00;6.80;99.90
33594;DHT22;19920;52.242;20.940;2022-12-24T10:48:34;6.80;99.90
33594;DHT22;19920;52.242;20.940;2022-12-24T10:51:04;6.80;99.90
33594;DHT22;19920;52.242;20.940;2022-12-24T10:56:07;6.80;99.90
33594;DHT22;19920;52.242;20.940;2022-12-24T10:58:33;6.90;99.90
33594;DHT22;19920;52.242;20.940;2022-12-24T11:01:00;6.90;99.90
33594;DHT22;19920;52.242;20.940;2022-12-24T11:03:31;6.80;99.90
33594;DHT22;19920;52.242;20.940;2022-12-24T11:06:12;6.80;99.90
33594;DHT22;19920;52.242;20.940;2022-12-24T11:08:41;6.90;99.90
33594;DHT22;19920;52.242;20.940;2022-12-24T11:11:16;6.80;99.90
33594;DHT22;19920;52.242;20.940;2022-12-24T11:16:31;6.70;99.90
33594;DHT22;19920;52.242;20.940;2022-12-24T11:19:03;6.70;99.90
33594;DHT22;19920;52.242;20.940;2022-12-24T11:21:37;6.70;99.90
33594;DHT22;19920;52.242;20.940;2022-12-24T11:24:13;6.60;99.90
33594;DHT22;19920;52.242;20.940;2022-12-24T11:26:45;6.60;99.90
33594;DHT22;19920;52.242;20.940;2022-12-24T11:29:23;6.50;99.90
33594;DHT22;19920;52.242;20.940;2022-12-24T11:31:50;6.50;99.90
33594;DHT22;19920;52.242;20.940;2022-12-24T11:34:29;6.50;99.90
33594;DHT22;19920;52.242;20.940;2022-12-24T11:37:18;6.50;99.90
33594;DHT22;19920;52.242;20.940;2022-12-24T11:40:03;6.60;99.90
33594;DHT22;19920;52.242;20.940;2022-12-24T11:42:33;6.40;99.90
33594;DHT22;19920;52.242;20.940;2022-12-24T11:45:05;6.50;99.90
33594;DHT22;19920;52.242;20.940;2022-12-24T11:47:37;6.60;99.90
33594;DHT22;19920;52.242;20.940;2022-12-24T11:55:44;6.70;99.90
33594;DHT22;19920;52.242;20.940;2022-12-24T12:01:23;6.50;99.90
33594;DHT22;19920;52.242;20.940;2022-12-24T12:03:55;6.50;99.90
33594;DHT22;19920;52.242;20.940;2022-12-24T12:06:44;6.60;99.90
33594;DHT22;19920;52.242;20.940;2022-12-24T12:09:22;6.50;99.90
33594;DHT22;19920;52.242;20.940;2022-12-24T12:12:05;6.50;99.90
33594;DHT22;19920;52.242;20.940;2022-12-24T12:14:37;6.50;99.90
33594;DHT22;19920;52.242;20.940;2022-12-24T12:25:04;6.40;99.90
33594;DHT22;19920;52.242;20.940;2022-12-24T12:27:36;6.40;99.90
33594;DHT22;19920;52.242;20.940;2022-12-24T12:30:09;6.40;99.90
33594;DHT22;19920;52.242;20.940;2022-12-24T12:35:32;6.40;99.90
33594;DHT22;19920;52.242;20.940;2022-12-24T12:38:28;6.30;99.90
33594;DHT22;19920;52.242;20.940;2022-12-24T12:46:32;6.40;99.90
33594;DHT22;19920;52.242;20.940;2022-12-24T12:55:30;6.60;99.90
33594;DHT22;19920;52.242;20.940;2022-12-24T12:57:54;6.60;99.90
33594;DHT22;19920;52.242;20.940;2022-12-24T13:00:21;6.60;99.90
33594;DHT22;19920;52.242;20.940;2022-12-24T13:05:51;6.60;99.90
33594;DHT22;19920;52.242;20.940;2022-12-24T13:19:33;6.50;99.90
33594;DHT22;19920;52.242;20.940;2022-12-24T13:22:01;6.50;99.90
33594;DHT22;19920;52.242;20.940;2022-12-24T13:24:29;6.50;99.90
33594;DHT22;19920;52.242;20.940;2022-12-24T13:29:53;6.50;99.90
33594;DHT22;19920;52.242;20.940;2022-12-24T13:35:00;6.50;99.90
33594;DHT22;19920;52.242;20.940;2022-12-24T13:56:04;6.30;99.90
33594;DHT22;19920;52.242;20.940;2022-12-24T13:58:32;6.30;99.90
33594;DHT22;19920;52.242;20.940;2022-12-24T14:01:05;6.30;99.90
33594;DHT22;19920;52.242;20.940;2022-12-24T14:06:10;6.40;99.90
33594;DHT22;19920;52.242;20.940;2022-12-24T14:08:40;6.40;99.90
33594;DHT22;19920;52.242;20.940;2022-12-24T14:11:13;6.30;99.90
33594;DHT22;19920;52.242;20.940;2022-12-24T14:16:13;6.30;99.90
33594;DHT22;19920;52.242;20.940;2022-12-24T14:18:42;6.20;99.90
33594;DHT22;19920;52.242;20.940;2022-12-24T14:21:19;6.30;99.90
33594;DHT22;19920;52.242;20.940;2022-12-24T14:23:58;6.30;99.90
33594;DHT22;19920;52.242;20.940;2022-12-24T14:26:42;6.20;99.90
33594;DHT22;19920;52.242;20.940;2022-12-24T14:31:54;6.10;99.90
33594;DHT22;19920;52.242;20.940;2022-12-24T14:34:20;6.10;99.90
33594;DHT22;19920;52.242;20.940;2022-12-24T14:36:47;6.10;99.90
33594;DHT22;19920;52.242;20.940;2022-12-24T14:39:34;5.90;99.90
33594;DHT22;19920;52.242;20.940;2022-12-24T14:47:55;5.90;99.90
33594;DHT22;19920;52.242;20.940;2022-12-24T14:55:40;5.80;99.90
33594;DHT22;19920;52.242;20.940;2022-12-24T15:00:52;5.80;99.90
33594;DHT22;19920;52.242;20.940;2022-12-24T15:03:21;5.70;99.90
33594;DHT22;19920;52.242;20.940;2022-12-24T15:05:53;5.80;99.90
33594;DHT22;19920;52.242;20.940;2022-12-24T15:08:27;5.80;99.90
33594;DHT22;19920;52.242;20.940;2022-12-24T15:10:54;5.80;99.90
33594;DHT22;19920;52.242;20.940;2022-12-24T15:13:36;5.80;99.90
33594;DHT22;19920;52.242;20.940;2022-12-24T15:16:11;5.80;99.90
33594;DHT22;19920;52.242;20.940;2022-12-24T15:18:42;5.70;99.90
33594;DHT22;19920;52.242;20.940;2022-12-24T15:21:36;5.60;99.90
33594;DHT22;19920;52.242;20.940;2022-12-24T15:24:02;5.70;99.90
33594;DHT22;19920;52.242;20.940;2022-12-24T15:26:33;5.60;99.90
33594;DHT22;19920;52.242;20.940;2022-12-24T15:29:15;5.70;99.90
33594;DHT22;19920;52.242;20.940;2022-12-24T15:31:44;5.80;99.90
33594;DHT22;19920;52.242;20.940;2022-12-24T15:34:28;5.80;99.90
33594;DHT22;19920;52.242;20.940;2022-12-24T15:39:31;5.70;99.90
33594;DHT22;19920;52.242;20.940;2022-12-24T15:41:57;5.80;99.90
33594;DHT22;19920;52.242;20.940;2022-12-24T15:44:38;5.70;99.90
33594;DHT22;19920;52.242;20.940;2022-12-24T15:47:07;5.70;99.90
33594;DHT22;19920;52.242;20.940;2022-12-24T15:49:39;5.60;99.90
33594;DHT22;19920;52.242;20.940;2022-12-24T15:52:07;5.60;99.90
33594;DHT22;19920;52.242;20.940;2022-12-24T15:54:34;5.60;99.90
33594;DHT22;19920;52.242;20.940;2022-12-24T15:57:29;5.60;99.90
33594;DHT22;19920;52.242;20.940;2022-12-24T15:59:57;5.60;99.90
33594;DHT22;19920;52.242;20.940;2022-12-24T16:04:49;5.50;99.90
33594;DHT22;19920;52.242;20.940;2022-12-24T16:07:25;5.60;99.90
33594;DHT22;19920;52.242;20.940;2022-12-24T16:10:25;5.40;99.90
33594;DHT22;19920;52.242;20.940;2022-12-24T16:12:51;5.40;99.90
33594;DHT22;19920;52.242;20.940;2022-12-24T16:15:17;5.40;99.90
33594;DHT22;19920;52.242;20.940;2022-12-24T16:17:47;5.40;99.90
33594;DHT22;19920;52.242;20.940;2022-12-24T16:20:20;5.40;99.90
33594;DHT22;19920;52.242;20.940;2022-12-24T16:22:46;5.40;99.90
33594;DHT22;19920;52.242;20.940;2022-12-24T16:25:25;5.30;99.90
33594;DHT22;19920;52.242;20.940;2022-12-24T16:27:51;5.30;99.90
33594;DHT22;19920;52.242;20.940;2022-12-24T16:30:17;5.30;99.90
33594;DHT22;19920;52.242;20.940;2022-12-24T16:32:45;5.30;99.90
33594;DHT22;19920;52.242;20.940;2022-12-24T16:35:27;5.50;99.90
33594;DHT22;19920;52.242;20.940;2022-12-24T16:37:53;5.50;99.90
33594;DHT22;19920;52.242;20.940;2022-12-24T16:40:20;5.40;99.90
33594;DHT22;19920;52.242;20.940;2022-12-24T16:42:45;5.40;99.90
33594;DHT22;19920;52.242;20.940;2022-12-24T16:45:30;5.40;99.90
33594;DHT22;19920;52.242;20.940;2022-12-24T16:47:57;5.40;99.90
33594;DHT22;19920;52.242;20.940;2022-12-24T16:50:23;5.40;99.90
33594;DHT22;19920;52.242;20.940;2022-12-24T16:52:49;5.40;99.90
33594;DHT22;19920;52.242;20.940;2022-12-24T16:55:15;5.30;99.90
33594;DHT22;19920;52.242;20.940;2022-12-24T16:57:41;5.30;99.90
33594;DHT22;19920;52.242;20.940;2022-12-24T17:00:19;5.40;99.90
33594;DHT22;19920;52.242;20.940;2022-12-24T17:02:45;5.40;99.90
33594;DHT22;19920;52.242;20.940;2022-12-24T17:05:12;5.40;99.90
33594;DHT22;19920;52.242;20.940;2022-12-24T17:07:38;5.40;99.90
33594;DHT22;19920;52.242;20.940;2022-12-24T17:10:04;5.30;99.90
33594;DHT22;19920;52.242;20.940;2022-12-24T17:12:30;5.40;99.90
33594;DHT22;19920;52.242;20.940;2022-12-24T17:14:56;5.30;99.90
33594;DHT22;19920;52.242;20.940;2022-12-24T17:17:27;5.30;99.90
33594;DHT22;19920;52.242;20.940;2022-12-24T17:19:53;5.30;99.90
33594;DHT22;19920;52.242;20.940;2022-12-24T17:22:19;5.30;99.90
33594;DHT22;19920;52.242;20.940;2022-12-24T17:24:45;5.30;99.90
33594;DHT22;19920;52.242;20.940;2022-12-24T17:27:11;5.20;99.90
33594;DHT22;19920;52.242;20.940;2022-12-24T17:29:37;5.20;99.90
33594;DHT22;19920;52.242;20.940;2022-12-24T17:32:03;5.20;99.90
33594;DHT22;19920;52.242;20.940;2022-12-24T17:34:29;5.20;99.90
33594;DHT22;19920;52.242;20.940;2022-12-24T17:36:54;5.30;99.90
33594;DHT22;19920;52.242;20.940;2022-12-24T17:39:20;5.30;99.90
33594;DHT22;19920;52.242;20.940;2022-12-24T17:41:46;5.20;99.90
33594;DHT22;19920;52.242;20.940;2022-12-24T17:44:12;5.30;99.90
33594;DHT22;19920;52.242;20.940;2022-12-24T17:46:38;5.20;99.90
33594;DHT22;19920;52.242;20.940;2022-12-24T17:49:04;5.20;99.90
33594;DHT22;19920;52.242;20.940;2022-12-24T17:51:30;5.20;99.90
33594;DHT22;19920;52.242;20.940;2022-12-24T17:53:58;5.20;99.90
33594;DHT22;19920;52.242;20.940;2022-12-24T17:56:24;5.20;99.90
33594;DHT22;19920;52.242;20.940;2022-12-24T17:58:50;5.20;99.90